Tiempo atmosférico en la estación meteorológica de Tarancón, Cuenca (808 m.)



Fecha
DESCASC
Temp. máxima en grados centígrados (hora)
DESCASC
Temp. mínima en grados centígrados (hora)
DESCASC
Temp. media en grados centígrados
DESCASC
Racha de viento máxima en m/sg (hora)
DESCASC
Velocidad máxima media en intervalos de 10 minutos(hora)
DESCASC
Precipitaciones diarias en mm
DESCASC
Precipitaciones de 00:00 a 06:00 en mm
DESCASC
Precipitaciones de 06:00 a 12:00 en mm
DESCASC
Precipitaciones de 12:00 a 18:00 en mm
DESCASC
Precipitaciones de 18:00 a 24:00 en mm
DESCASC
10-07-2020 34.2 (16:50) 17.5 (02:20) 25.9 7.78 (23:59) 4.44 (23:59) 0.2 0.2 0 0 0
09-07-2020 34.6 (17:30) 17.2 (22:30) 25.9 16.67 (19:00) 6.67 (19:30) 3.2 0 0 0.6 2.6
08-07-2020 36.5 (14:50) 22.2 (05:40) 29.4 17.5 (17:30) 9.72 (17:40) 0 0 0 0 0
07-07-2020 38.8 (17:20) 22.7 (07:10) 30.8 11.11 (17:40) 5 (16:00) 0 0 0 0 0
06-07-2020 37.5 (17:20) 21.6 (00:00) 29.6 10 (15:20) 4.17 (02:20) 0 0 0 0 0
05-07-2020 36.6 (18:10) 20.6 (00:00) 28.6 8.89 (17:50) 4.72 (05:10) 0 0 0 0 0
04-07-2020 34.5 (17:00) 19.4 (00:00) 26.9 9.17 (15:10) 3.61 (08:40) 0 0 0 0 0
03-07-2020 33 (18:00) 15.8 (07:20) 24.4 11.39 (15:30) 4.17 (00:50) 0 0 0 0 0
02-07-2020 33.3 (17:00) 20 (00:00) 26.6 13.06 (14:50) 6.39 (15:30) 0 0 0 0 0
01-07-2020 35.5 (16:40) 22 (00:00) 28.8 15.28 (17:20) 7.5 (16:50) 0 0 0 0 0
30-06-2020 37.8 (16:30) 21.2 (00:00) 29.5 13.61 (19:20) 8.06 (19:20) 0 0 0 0 0
29-06-2020 36.8 (17:10) 20.2 (00:00) 28.5 10.28 (14:50) 5.28 (15:20) 0 0 0 0 0
28-06-2020 35.1 (17:50) 20.2 (00:00) 27.6 8.89 (15:50) 4.72 (15:50) 0 0 0 0 0
27-06-2020 32.4 (17:10) 16.4 (00:00) 24.4 9.72 (16:20) 4.17 (16:20) 0 0 0 0 0
26-06-2020 32.8 (17:10) 19.1 (00:00) 25.9 11.39 (17:50) 6.11 (16:10) 0 0 0 0 0
25-06-2020 35.7 (17:10) 19.2 (00:00) 27.5 13.89 (05:20) 7.22 (05:20) 0 0 0 0 0
24-06-2020 34.5 (18:30) 20 (00:00) 27.3 13.33 (05:00) 6.67 (02:00) 0.2 0.2 0 0 0
23-06-2020 37.5 (17:20) 20 (00:00) 28.8 11.94 (04:10) 6.39 (08:40) 0 0 0 0 0
22-06-2020 36.3 (17:50) 18.9 (00:00) 27.6 7.5 (13:10) 3.33 (23:59) 0 0 0 0 0
21-06-2020 34.5 (17:10) 17.9 (00:00) 26.2 8.61 (17:20) 4.17 (17:10) 0 0 0 0 0
20-06-2020 32.8 (17:00) 15 (00:00) 23.9 11.39 (16:50) 5 (14:20) 0 0 0 0 0
19-06-2020 30.9 (17:30) 16.1 (00:00) 23.5 11.11 (16:00) 5.83 (16:00) 0 0 0 0 0
18-06-2020 29.6 (17:10) 13.7 (00:00) 21.7 12.22 (16:20) 5 (16:20) 0 0 0 0 0
17-06-2020 26.9 (17:30) 13 (00:00) 19.9 10 (18:20) 4.17 (17:40) 0 0 0 0 0
16-06-2020 26.6 (18:50) 14 (00:00) 20.3 13.33 (20:30) 6.39 (20:30) 0 0 0 0 0
15-06-2020 28.4 (17:00) 12.6 (00:00) 20.5 11.11 (20:00) 4.72 (14:10) 0 0 0 0 0

Gráficas

Temp. máximas Temp. mínimas Temp. medias Precipitaciones Rachas de viento máximas Velocidades máximas media en intervalos de 10 minutos

Datos horarios

Fecha y hora oficial Temperatura (ºC) Velocidad del viento (km/h) Dirección del viento Racha (km/h) Dirección de racha Precipitación (mm) Presión (hPa) Tendencia (hPa) Humedad (%)
2020-07-14 23:00:00 21 15 Sudeste 45 Sudeste 0 922.8 1.3 56
2020-07-14 22:00:00 22 21 Sudeste 59 Sudeste 0 922.2 1.7 50
2020-07-14 21:00:00 23.8 26 Sudeste 50 Sudeste 0 922 2 43
2020-07-14 20:00:00 24.7 24 Sudeste 50 Este 0 921.5 1.2 46
2020-07-14 19:00:00 30.3 19 Sudeste 40 Sudeste 0 920.5 -0.2 30
2020-07-14 18:00:00 32.5 12 Noroeste 35 Norte 0 920 -1.9 20
2020-07-14 17:00:00 32.9 14 Noroeste 38 Noroeste 0 920.3 -2.6 20
2020-07-14 16:00:00 32.1 4 Este 17 Sudoeste 0 920.7 -2.6 26
2020-07-14 15:00:00 31.6 8 Sudeste 27 Sur 0 921.9 -1.8 29
2020-07-14 14:00:00 29.3 9 Este 22 Nordeste 0 922.9 -1 34
2020-07-14 13:00:00 27.9 6 Sudoeste 22 Nordeste 0 923.3 -1 37
2020-07-14 12:00:00 26.6 6 Este 20 Sudeste 0 923.7 -0.7 41
2020-07-14 11:00:00 25.1 9 Sudeste 21 Sudeste 0 923.9 -0.6 48
2020-07-14 10:00:00 23.7 12 Este 24 Sudeste 0 924.3 -0.2 52
2020-07-14 09:00:00 21.8 10 Este 20 Este 0 924.4 0.2 57
2020-07-14 08:00:00 20.6 6 Nordeste 16 Este 0 924.5 0.4 61
2020-07-14 07:00:00 20.9 6 Este 26 Este 0 924.5 -- 58
2020-07-14 06:00:00 21.3 11 Este 27 Sudeste 0 924.2 -- 55
2020-07-14 05:00:00 21.6 18 Sudeste 31 Este 0 924.1 -- 55
2020-07-14 04:00:00 22.3 13 Este 33 Este 0 924.6 -- 54
2020-07-14 03:00:00 22.9 16 Sudeste 30 Sudeste 0 924.8 -- 54
2020-07-14 02:00:00 24.1 17 Sudeste 32 Sudeste 0 925 -- 51
2020-07-14 01:00:00 26.1 17 Sudeste 36 Sudeste 0 925.1 -- 45
2020-07-14 00:00:00 26.9 8 Nordeste 16 Nordeste 0 924.8 -- 32
2020-07-13 23:00:00 28.5 4 Sudeste 10 Sudeste 0 924.4 -- 29
2020-07-13 22:00:00 30.3 5 Este 17 Este 0 924 0.2 27
2020-07-13 21:00:00 31.6 8 Este 18 Este 0 923.7 -0.5 24
2020-07-13 20:00:00 31.4 9 Norte 25 Norte 0 923.7 -1.1 25
2020-07-13 19:00:00 33.6 6 Oeste 22 Oeste 0 923.8 -1.5 21
2020-07-13 18:00:00 34 5 Sur 20 Este 0 924.2 -1.6 21
2020-07-13 17:00:00 32.8 7 Sudeste 20 Sudeste 0 924.8 -1.6 24
2020-07-13 16:00:00 33.8 9 Sudeste 24 Este 0 925.3 -1.3 24
2020-07-13 15:00:00 32.1 8 Sudeste 21 Este 0 925.8 -1 27
2020-07-13 14:00:00 30.2 7 Sudeste 22 Sudeste 0 926.4 -0.3 32
2020-07-13 13:00:00 28.8 10 Sudeste 30 Sudeste 0 926.6 0 34
2020-07-13 12:00:00 27 10 Este 19 Este 0 926.8 0.4 38
2020-07-13 11:00:00 25.3 8 Sudeste 21 Este 0 926.7 0.6 42
2020-07-13 10:00:00 23.1 11 Este 22 Sudeste 0 926.6 0.6 49
2020-07-13 09:00:00 20.9 7 Este 20 Nordeste 0 926.4 0.9 60
2020-07-13 08:00:00 19.5 8 Este 18 Nordeste 0 926.1 0.5 65
2020-07-13 07:00:00 19 5 Nordeste 21 Este 0 926 -- 69
2020-07-13 06:00:00 19.8 8 Este 21 Este 0 925.5 -0.5 68
2020-07-13 05:00:00 20.1 10 Este 25 Sudeste 0 925.6 -0.7 68
2020-07-13 04:00:00 20.5 12 Este 23 Sudeste 0 925.7 -0.4 67
2020-07-13 03:00:00 20.8 9 Este 21 Este 0 926 -0.1 66
2020-07-13 02:00:00 21.3 8 Este 24 Este 0 926.3 0.7 63
2020-07-13 01:00:00 22 13 Este 27 Este 0 926.1 0.9 59
2020-07-13 00:00:00 22.6 11 Este 22 Este 0 926.1 1.5 54
2020-07-12 23:00:00 23.2 12 Este 26 Este 0 925.6 1.3 49
2020-07-12 22:00:00 23.6 12 Sudeste 31 Sudeste 0 925.2 1.3 53
2020-07-12 21:00:00 25.2 17 Este 37 Este 0 924.6 1 49
2020-07-12 20:00:00 25.8 18 Este 46 Sudeste 0 924.3 0.7 49
2020-07-12 19:00:00 26.2 20 Sudeste 49 Sudeste 0 923.9 0.3 43
2020-07-12 18:00:00 26.5 28 Sudeste 62 Sur 0 923.6 -0.5 43
2020-07-12 17:00:00 30.8 28 Sudeste 54 Sudeste 0 923.6 -0.5 28
2020-07-12 16:00:00 31.3 15 Sudeste 46 Sudeste 0 923.6 -0.7 26
2020-07-12 15:00:00 32 22 Sudeste 50 Sudeste 0 924.1 -- 28
2020-07-12 14:00:00 32.8 12 Sudeste 31 Este 0 924.1 -0.6 22
2020-07-12 13:00:00 30.2 10 Sudeste 26 Sudeste 0 924.3 -- 28
2020-07-12 12:00:00 28.6 12 Sudeste 30 Sudeste 0 924.6 -- 33
2020-07-12 11:00:00 25.4 15 Sudeste 35 Sudeste 0 924.7 -- 47
2020-07-12 10:00:00 22.6 18 Sudeste 34 Sudeste 0 924.6 1.3 54
2020-07-12 09:00:00 21.1 15 Sudeste 36 Sudeste 0 924.5 -- 64
2020-07-12 08:00:00 20.6 15 Sudeste 43 Sudeste 0 923.5 -- 64
2020-07-12 07:00:00 20.5 23 Sudeste 51 Sudeste 0 923.3 -- 64
2020-07-12 06:00:00 20.9 26 Sudeste 53 Sudeste 0 922.8 -- 65
2020-07-12 05:00:00 21.2 27 Sudeste 55 Sudeste 0 923 -- 63
2020-07-12 04:00:00 21.6 27 Sudeste 53 Sudeste 0 923.4 -- 61
2020-07-12 03:00:00 22.1 22 Sudeste 44 Sudeste 0 923.4 -- 60
2020-07-12 02:00:00 22.8 22 Sudeste 48 Sudeste 0 923 -- 60
2020-07-12 01:00:00 23.8 23 Sudeste 44 Sudeste 0 923.2 -- 57
2020-07-12 00:00:00 25.1 22 Sudeste 41 Sudeste 0 923.7 -- 51
2020-07-11 23:00:00 26.9 20 Sudeste 40 Sudeste 0 923.8 -- 42
2020-07-11 22:00:00 28.6 19 Sudeste 40 Sudeste 0 923.2 -- 35
2020-07-11 21:00:00 30.9 22 Sudeste 40 Este 0 922.8 -- 27
2020-07-11 20:00:00 32.8 18 Sudeste 42 Sudeste 0 922.7 -- 23
2020-07-11 19:00:00 34.5 18 Sudeste 37 Este 0 922.8 -0.7 20
2020-07-11 18:00:00 36.2 12 Sudeste 39 Sudeste 0 923 -- 18
2020-07-11 17:00:00 35.3 13 Sudeste 38 Sudeste 0 923.4 -- 17
2020-07-11 16:00:00 34.6 18 Sudeste 38 Sur 0 923.5 -- 17
2020-07-11 15:00:00 34.8 12 Sudeste 30 Sudeste 0 923.9 -- 17
2020-07-11 14:00:00 33.3 14 Sudeste 35 Sudeste 0 924.4 -- 18
2020-07-11 13:00:00 31.7 15 Sudeste 34 Sudeste 0 924.6 -- 19
2020-07-11 12:00:00 30.2 15 Sudeste 31 Sudeste 0 924.6 -- 22
2020-07-11 11:00:00 27.5 18 Sudeste 34 Sudeste 0 924.7 -- 26
2020-07-11 10:00:00 25.2 15 Sudeste 29 Sudeste 0 924.6 -- 28
2020-07-11 09:00:00 22.7 11 Nordeste 21 Este 0 924.2 -- 35
2020-07-11 08:00:00 22 4 Nordeste 29 Sudeste 0 923.9 -- 37
2020-07-11 07:00:00 21.4 14 Sudeste 27 Sudeste 0 923.4 -- 40
2020-07-11 06:00:00 21.4 17 Sudeste 33 Sudeste 0 923.2 -- 43
2020-07-11 05:00:00 21.4 15 Sudeste 26 Sudeste 0 923.3 -- 45
2020-07-11 04:00:00 21.7 13 Sudeste 28 Sudeste 0 923.2 -- 44
2020-07-11 03:00:00 22.7 17 Sudeste 30 Sudeste 0 923.3 -- 41
2020-07-11 02:00:00 23.2 15 Sudeste 32 Este 0 923.3 0.9 42
2020-07-11 01:00:00 23.9 17 Sudeste 35 Sudeste 0 923.3 -- 42
2020-07-11 00:00:00 26.6 16 Sudeste 28 Sudeste 0 923 -- 33
2020-07-10 23:00:00 28.2 4 Este 10 Este 0 922.4 -- 27
2020-07-10 22:00:00 29.1 5 Nordeste 11 Nordeste 0 921.9 -- 26
2020-07-10 21:00:00 30.3 4 Nordeste 17 Nordeste 0 921.7 -- 22
2020-07-10 20:00:00 30.6 4 Noroeste 17 Nordeste 0 921.5 -- 23
2020-07-10 19:00:00 31.3 7 Nordeste 18 Sudeste 0 921.5 -- 23
2020-07-10 18:00:00 31.9 8 Este 21 Sudeste 0 921.7 -- 21
2020-07-10 17:00:00 33.2 8 Sur 21 Sur 0 921.9 -- 19
2020-07-10 16:00:00 32.3 7 Sudoeste 20 Noroeste 0 922.3 -- 20
2020-07-10 15:00:00 31.3 8 Sur 21 Sudeste 0 923 -- 22
2020-07-10 14:00:00 28.9 8 Nordeste 19 Nordeste 0 923.4 -0.5 27
2020-07-10 13:00:00 27.9 9 Este 22 Sudeste 0 923.5 -- 32
2020-07-10 12:00:00 26.3 8 Este 24 Sudeste 0 923.8 -- 34
2020-07-10 11:00:00 24.2 12 Sudeste 24 Este 0 923.9 0.4 45
2020-07-10 10:00:00 21.7 9 Este 18 Este 0 923.8 -- 55
2020-07-10 09:00:00 19.7 7 Nordeste 16 Nordeste 0 923.7 -- 59
2020-07-10 08:00:00 18.8 4 Este 12 Nordeste 0 923.5 -- 59
2020-07-10 07:00:00 18.4 5 Nordeste 11 Nordeste 0 923.5 -- 62
2020-07-10 06:00:00 18.4 4 Este 12 Nordeste 0 923.5 -- 62
2020-07-10 05:00:00 18.9 6 Este 11 Este 0 923.6 -- 61
2020-07-10 04:00:00 19.2 7 Este 16 Este 0 923.8 -- 59
2020-07-10 03:00:00 18.8 5 Este 10 Este 0.2 924 -- 64
2020-07-10 02:00:00 17.8 4 Noroeste 14 Noroeste 0 924.8 -- 73
2020-07-10 01:00:00 18.5 8 Norte 22 Este 0 924.3 -- 66
2020-07-10 00:00:00 19.3 10 Este 27 Sudeste 0 924 -- 58
2020-07-09 23:00:00 18.5 10 Este 25 Norte 0 924.4 -- 65
2020-07-09 22:00:00 17.7 16 Norte 41 Este 0 924.2 -- 75
2020-07-09 21:00:00 18.3 22 Nordeste 35 Nordeste 2.4 923.5 -- 68
2020-07-09 20:00:00 21.4 16 Este 48 Este 0.2 924.7 -- 53
2020-07-09 19:00:00 27 22 Este 60 Este 0 923.4 -- 27
2020-07-09 18:00:00 28.9 9 Nordeste 36 Nordeste 0 922.7 -- 25
2020-07-09 17:00:00 34.5 10 Sudeste 35 Sudeste 0 923.2 -- 17
2020-07-09 16:00:00 33.2 15 Este 30 Este 0 923.9 -- 22
2020-07-09 15:00:00 28.8 5 Sur 14 Sudoeste 0 924.2 -- 30
2020-07-09 14:00:00 28 11 Sudeste 30 Sudeste 0.6 924.7 -- 41
2020-07-09 13:00:00 30 8 Sur 24 Sur 0 924.6 -- 23
2020-07-09 12:00:00 27.7 9 Sur 25 Sudeste 0 924.9 -- 29
2020-07-09 11:00:00 25.8 14 Sudeste 27 Sudeste 0 925 -- 36
2020-07-09 10:00:00 23.7 13 Sudeste 30 Sur 0 924.9 -- 50
2020-07-09 09:00:00 21.9 14 Sudeste 31 Sudeste 0 924.3 -- 57
2020-07-09 08:00:00 20.5 14 Sudeste 37 Sudeste 0 924.1 -- 66
2020-07-09 07:00:00 20.3 20 Sudeste 37 Sudeste 0 923.5 -- 69
2020-07-09 06:00:00 20.4 20 Sudeste 32 Sudeste 0 923.3 -- 70
2020-07-09 05:00:00 21.1 16 Sudeste 35 Sudeste 0 922.8 -- 67
2020-07-09 04:00:00 21.9 21 Sudeste 36 Sudeste 0 922.7 -- 62
2020-07-09 03:00:00 22.2 18 Sudeste 40 Sudeste 0 923.2 -- 58
2020-07-09 02:00:00 22.4 19 Sudeste 39 Sur 0 923.4 -- 52
2020-07-09 01:00:00 23.3 17 Sur 33 Sudeste 0 922.9 -- 42
2020-07-09 00:00:00 24.9 15 Sudeste 41 Sudeste 0 922.2 -- 33
2020-07-08 23:00:00 26.1 18 Este 39 Este 0 922.3 -- 29
2020-07-08 22:00:00 26.9 18 Este 53 Sudeste 0 921.6 -- 27
2020-07-08 21:00:00 28.7 25 Sudeste 60 Sudeste 0 921.2 -- 24
2020-07-08 20:00:00 29.7 27 Sudeste 55 Sudeste 0 921.6 -- 25
2020-07-08 19:00:00 30.9 29 Sudeste 53 Sudeste 0 922.5 -- 26
2020-07-08 18:00:00 32.9 27 Sudeste 63 Sudeste 0 921.9 -- 20
2020-07-08 17:00:00 33.9 27 Sudeste 50 Sudeste 0 921.9 -- 18
2020-07-08 16:00:00 35.1 25 Sudeste 50 Sudeste 0 922 -- 18
2020-07-08 15:00:00 35.1 24 Sudeste 43 Este 0 922 -- 14
2020-07-08 14:00:00 34.4 14 Sur 36 Este 0 922.3 -- 13
2020-07-08 13:00:00 33.3 13 Este 39 Este 0 923 -- 19
2020-07-08 12:00:00 30.6 17 Este 40 Este 0 923.2 -- 26
2020-07-08 11:00:00 28 19 Sudeste 33 Este 0 923.3 -- 32
2020-07-08 10:00:00 25.3 10 Este 32 Norte 0 924.7 -- 40
2020-07-08 09:00:00 24 14 Nordeste 33 Noroeste 0 924.1 -- 45
2020-07-08 08:00:00 23.8 17 Este 35 Este 0 922.5 -- 46
2020-07-08 07:00:00 23.1 16 Este 27 Sudeste 0 922.4 -- 50
2020-07-08 06:00:00 22.3 12 Sur 29 Sudeste 0 923.4 -- 55
2020-07-08 05:00:00 23.4 14 Sudeste 28 Sudeste 0 922.4 -- 51
2020-07-08 04:00:00 23.8 16 Sudeste 31 Sudeste 0 922.4 -- 50
2020-07-08 03:00:00 25.5 17 Sudeste 28 Sudeste 0 922.9 -- 44
2020-07-08 02:00:00 27.3 5 Sudeste 13 Sur 0 922.9 -- 18
2020-07-08 01:00:00 28.7 7 Sur 20 Sudoeste 0 923.1 -- 16
2020-07-08 00:00:00 31 9 Oeste 22 Oeste 0 922.9 -- 14
2020-07-07 23:00:00 31.9 10 Oeste 23 Oeste 0 922.7 -- 12
2020-07-07 22:00:00 33.2 8 Oeste 18 Oeste 0 922.1 -- 13
2020-07-07 21:00:00 35.2 9 Oeste 30 Noroeste 0 921.9 -- 11
2020-07-07 20:00:00 36.6 10 Noroeste 31 Oeste 0 921.8 -0.9 10
2020-07-07 19:00:00 37.8 14 Oeste 36 Noroeste 0 921.9 -1.2 10
2020-07-07 18:00:00 38.5 13 Noroeste 40 Oeste 0 922.3 -1.2 10
2020-07-07 17:00:00 38.1 10 Oeste 35 Oeste 0 922.7 -1.3 10
2020-07-07 16:00:00 37.4 18 Oeste 34 Oeste 0 923.1 -1.1 10
2020-07-07 15:00:00 36 9 Oeste 34 Oeste 0 923.5 -1 13
2020-07-07 14:00:00 34.9 12 Oeste 28 Oeste 0 924 -0.5 17
2020-07-07 13:00:00 32.8 7 Sudoeste 18 Noroeste 0 924.2 -0.5 22
2020-07-07 12:00:00 30.6 8 Nordeste 15 Nordeste 0 924.5 0 25
2020-07-07 11:00:00 28.8 6 Nordeste 17 Este 0 924.5 0.2 30
2020-07-07 10:00:00 26.5 6 Este 16 Este 0 924.7 0.8 34
2020-07-07 09:00:00 24.8 4 Nordeste 11 Nordeste 0 924.5 0.7 38
2020-07-07 08:00:00 23.4 4 Norte 12 Nordeste 0 924.3 0.5 42
2020-07-07 07:00:00 22.9 6 Norte 12 Este 0 923.9 -- 43
2020-07-07 06:00:00 24.9 7 Este 16 Este 0 923.8 -- 37
2020-07-07 05:00:00 25.1 9 Este 21 Este 0 923.8 -- 37
2020-07-07 04:00:00 25.1 3 Nordeste 11 Norte 0 924.1 -- 38
2020-07-07 03:00:00 25.1 6 Norte 18 Este 0 924.2 -- 36
2020-07-07 02:00:00 27.6 12 Este 21 Este 0 924.1 -- 31
2020-07-07 01:00:00 28 6 Nordeste 18 Norte 0 924.2 -- 28
2020-07-07 00:00:00 30.2 8 Nordeste 14 Este 0 923.8 -- 25
2020-07-06 23:00:00 31.6 6 Nordeste 13 Nordeste 0 923.6 -- 22
2020-07-06 22:00:00 32.7 3 Noroeste 10 Oeste 0 922.9 -- 20
2020-07-06 21:00:00 33.7 5 Noroeste 15 Norte 0 922.9 -- 18
2020-07-06 20:00:00 35 9 Norte 21 Norte 0 922.9 -- 15
2020-07-06 19:00:00 36.1 9 Noroeste 29 Noroeste 0 923.2 -- 14
2020-07-06 18:00:00 37 9 Noroeste 32 Noroeste 0 923.6 -- 13
2020-07-06 17:00:00 36.9 11 Oeste 31 Noroeste 0 924 -- 12
2020-07-06 16:00:00 34.6 11 Noroeste 36 Oeste 0 924.4 -- 15
2020-07-06 15:00:00 34.4 13 Norte 34 Norte 0 924.8 -- 15
2020-07-06 14:00:00 33.1 6 Noroeste 24 Noroeste 0 925.3 -- 17
2020-07-06 13:00:00 31.8 8 Norte 21 Noroeste 0 925.6 -- 21
2020-07-06 12:00:00 29.8 7 Noroeste 17 Norte 0 925.7 -- 27
2020-07-06 11:00:00 27.7 8 Norte 20 Norte 0 925.9 -- 32
2020-07-06 10:00:00 25.1 8 Norte 15 Norte 0 926 -- 38
2020-07-06 09:00:00 22.8 6 Noroeste 18 Este 0 925.9 -- 44
2020-07-06 08:00:00 22.5 9 Este 18 Este 0 925.4 -- 45
2020-07-06 07:00:00 22.3 5 Este 22 Sudeste 0 925.3 -- 45
2020-07-06 06:00:00 21.7 12 Sudeste 22 Sudeste 0 924.9 -- 47
2020-07-06 05:00:00 22.2 10 Sur 21 Sudeste 0 925.1 -- 46
2020-07-06 04:00:00 23.4 12 Sudeste 27 Sudeste 0 925.3 -- 41
2020-07-06 03:00:00 24.8 13 Sudeste 27 Sudeste 0 925.5 -- 37
2020-07-06 02:00:00 24.8 6 Norte 19 Este 0 925.8 -- 19
2020-07-06 01:00:00 26.6 2 Sudeste 5 Sudeste 0 925.5 -- 20
2020-07-06 00:00:00 28 3 Este 5 Este 0 925.4 -- 17
2020-07-05 23:00:00 29.5 3 Nordeste 5 Nordeste 0 925.4 -- 14
2020-07-05 22:00:00 31 0 Calma 13 Norte 0 925.3 -- 13
2020-07-05 21:00:00 33 6 Noroeste 29 Norte 0 925.2 -- 12
2020-07-05 20:00:00 34 9 Norte 22 Noroeste 0 925.1 -- 11
2020-07-05 19:00:00 35.4 13 Sudoeste 23 Oeste 0 925.2 -- 12
2020-07-05 18:00:00 36.5 7 Noroeste 32 Este 0 925.6 -- 11
2020-07-05 17:00:00 35.9 9 Noroeste 27 Noroeste 0 926.2 -- 11
2020-07-05 16:00:00 35.3 9 Noroeste 27 Sudoeste 0 926.6 -- 12
2020-07-05 15:00:00 33.8 8 Oeste 26 Norte 0 927 -- 14
2020-07-05 14:00:00 31.9 4 Sudeste 18 Oeste 0 927.7 -- 21
2020-07-05 13:00:00 30.6 4 Sur 16 Sudeste 0 928.2 -- 29
2020-07-05 12:00:00 27.7 6 Nordeste 17 Sudeste 0 928.5 -- 40
2020-07-05 11:00:00 26.3 8 Este 21 Este 0 928.7 -- 44
2020-07-05 10:00:00 24.1 6 Sudeste 24 Sudeste 0 928.8 -- 54
2020-07-05 09:00:00 22.4 6 Este 14 Sudeste 0 928.6 -- 59
2020-07-05 08:00:00 21.2 4 Este 15 Este 0 928.3 -- 64
2020-07-05 07:00:00 20.8 4 Nordeste 20 Este 0 928.3 -- 71
2020-07-05 06:00:00 21.8 7 Este 30 Sudeste 0 928.1 -- 69
2020-07-05 05:00:00 21.9 15 Sudeste 31 Sudeste 0 927.9 -- 70
2020-07-05 04:00:00 22.6 14 Sudeste 27 Sudeste 0 928.1 -- 65
2020-07-05 03:00:00 23.2 14 Sudeste 25 Sudeste 0 928.4 -- 57
2020-07-05 02:00:00 25 13 Sudeste 29 Este 0 928.4 -- 30
2020-07-05 01:00:00 27 5 Este 14 Este 0 928.1 -- 12
2020-07-05 00:00:00 27.8 6 Nordeste 14 Nordeste 0 928.1 -- 13
2020-07-04 23:00:00 27.9 3 Norte 8 Norte 0 927.8 -- 14
2020-07-04 22:00:00 28.9 4 Norte 13 Noroeste 0 927.2 -- 12
2020-07-04 21:00:00 31.2 4 Noroeste 18 Noroeste 0 927 -- 11
2020-07-04 20:00:00 32.2 9 Norte 23 Norte 0 926.8 -- 11
2020-07-04 19:00:00 32.9 11 Norte 30 Noroeste 0 926.9 -- 11
2020-07-04 18:00:00 33.4 9 Norte 24 Noroeste 0 927.2 -- 11
2020-07-04 17:00:00 34.3 8 Sudoeste 29 Noroeste 0 927.6 -- 11
2020-07-04 16:00:00 32 8 Norte 33 Noroeste 0 928 -- 13
2020-07-04 15:00:00 30.5 9 Noroeste 27 Noroeste 0 928.5 -- 16
2020-07-04 14:00:00 30.1 6 Noroeste 24 Noroeste 0 928.9 -- 20
2020-07-04 13:00:00 28.1 4 Oeste 20 Norte 0 929.1 -- 33
2020-07-04 12:00:00 25.9 8 Norte 20 Nordeste 0 929.3 -- 43
2020-07-04 11:00:00 23.8 7 Nordeste 17 Nordeste 0 929.3 -- 56
2020-07-04 10:00:00 22.1 6 Este 21 Este 0 929.2 -- 66
2020-07-04 09:00:00 20.6 11 Este 22 Sudeste 0 928.9 -- 72
2020-07-04 08:00:00 19.9 10 Este 20 Este 0 928.6 -- 70
2020-07-04 07:00:00 20 6 Este 15 Este 0 928.3 -- 67
2020-07-04 06:00:00 20 5 Nordeste 13 Este 0 927.8 -- 68
2020-07-04 05:00:00 19.4 4 Norte 14 Nordeste 0 928 -- 67
2020-07-04 04:00:00 20.9 7 Nordeste 21 Este 0 927.8 -- 68
2020-07-04 03:00:00 22.3 13 Este 24 Este 0 927.6 -- 53
2020-07-04 02:00:00 21.3 6 Norte 25 Noroeste 0 927.3 -- 24
2020-07-04 01:00:00 23.5 3 Sudeste 6 Este 0 926.8 -- 20
2020-07-04 00:00:00 24 0 Calma 4 Este 0 926.6 -- 18
2020-07-03 23:00:00 25.9 2 Norte 6 Noroeste 0 926.4 -- 15
2020-07-03 22:00:00 27.3 2 Norte 16 Noroeste 0 926.1 -- 14
2020-07-03 21:00:00 29.1 9 Noroeste 23 Norte 0 925.8 -- 13
2020-07-03 20:00:00 30.4 11 Noroeste 31 Noroeste 0 925.3 -- 13
2020-07-03 19:00:00 31.7 11 Oeste 30 Oeste 0 925 -- 15
2020-07-03 18:00:00 33 10 Oeste 23 Oeste 0 925.2 -- 13
2020-07-03 17:00:00 31.9 6 Oeste 26 Norte 0 925.3 -- 15
2020-07-03 16:00:00 30.5 8 Noroeste 41 Norte 0 925.6 -- 17
2020-07-03 15:00:00 29.9 9 Noroeste 27 Norte 0 925.9 -- 18
2020-07-03 14:00:00 28 8 Noroeste 30 Noroeste 0 926.2 -- 23
2020-07-03 13:00:00 26.1 5 Norte 22 Norte 0 926.3 -- 31
2020-07-03 12:00:00 24.5 6 Norte 19 Norte 0 926.2 -- 41
2020-07-03 11:00:00 22.8 5 Norte 14 Nordeste 0 926.2 -- 50
2020-07-03 10:00:00 20.7 5 Este 16 Nordeste 0 926.1 -- 58
2020-07-03 09:00:00 18.8 9 Nordeste 19 Norte 0 925.8 -- 59
2020-07-03 08:00:00 16.2 4 Norte 14 Noroeste 0 925.3 -- 70
2020-07-03 07:00:00 16.1 4 Noroeste 12 Noroeste 0 924.7 -- 70
2020-07-03 06:00:00 17.2 6 Norte 15 Noroeste 0 924.5 -- 67
2020-07-03 05:00:00 18.5 5 Noroeste 13 Norte 0 924.2 -- 58
2020-07-03 04:00:00 19.9 6 Noroeste 16 Noroeste 0 924.1 -- 45
2020-07-03 03:00:00 21.4 5 Noroeste 20 Noroeste 0 924.2 -- 33
2020-07-03 02:00:00 22.2 8 Oeste 26 Oeste 0 924.1 -- 29
2020-07-03 01:00:00 23.9 14 Oeste 33 Oeste 0 923.9 -- 28
2020-07-03 00:00:00 24.8 13 Oeste 30 Oeste 0 923.8 -- 28
2020-07-02 23:00:00 25.9 11 Oeste 28 Oeste 0 923.4 -- 25
2020-07-02 22:00:00 27.3 12 Oeste 33 Noroeste 0 922.8 -- 22
2020-07-02 21:00:00 29.1 14 Oeste 39 Oeste 0 922.3 -- 17
2020-07-02 20:00:00 30.4 14 Oeste 40 Oeste 0 922.1 -- 14
2020-07-02 19:00:00 31.8 17 Oeste 42 Oeste 0 922.1 -- 13
2020-07-02 18:00:00 32.9 19 Oeste 44 Oeste 0 922.2 -- 12
2020-07-02 17:00:00 33.2 15 Oeste 45 Oeste 0 922.1 -- 13
2020-07-02 16:00:00 32.6 16 Oeste 44 Oeste 0 922.8 -- 13
2020-07-02 15:00:00 32.1 10 Oeste 47 Oeste 0 923 -- 15
2020-07-02 14:00:00 30.9 20 Oeste 42 Oeste 0 923.3 -- 14
2020-07-02 13:00:00 29.9 14 Oeste 33 Oeste 0 923.4 -- 18
2020-07-02 12:00:00 28.7 11 Oeste 29 Oeste 0 923.4 -- 24
2020-07-02 11:00:00 27.1 11 Oeste 25 Oeste 0 923.3 -- 27
2020-07-02 10:00:00 24.2 9 Sudoeste 17 Sudoeste 0 923.1 -- 32
2020-07-02 09:00:00 22 5 Sur 11 Sudeste 0 922.6 -- 34
2020-07-02 08:00:00 20.7 5 Sudoeste 12 Oeste 0 922.3 -- 39
2020-07-02 07:00:00 20.1 4 Sudoeste 8 Sur 0 921.9 -- 37
2020-07-02 06:00:00 21.2 0 Calma 5 Noroeste 0 921.6 -- 35
2020-07-02 05:00:00 21.8 2 Oeste 12 Sudoeste 0 921.5 -- 32
2020-07-02 04:00:00 22.6 6 Sudoeste 17 Sudoeste 0 921.9 -- 30
2020-07-02 03:00:00 24 5 Oeste 17 Oeste 0 921.9 -- 27
2020-07-02 02:00:00 25.5 8 Oeste 19 Oeste 0 922 -- 23
2020-07-02 01:00:00 26.6 11 Oeste 24 Oeste 0 922.1 -- 19
2020-07-02 00:00:00 27.1 13 Oeste 24 Oeste 0 922 -- 18
2020-07-01 23:00:00 28.5 10 Oeste 22 Oeste 0 921.6 -- 14
2020-07-01 22:00:00 29.7 10 Oeste 33 Oeste 0 921.1 -- 13
2020-07-01 21:00:00 31.6 12 Oeste 35 Oeste 0 920.7 -- 11
2020-07-01 20:00:00 32.7 17 Oeste 50 Oeste 0 920.3 -- 12
2020-07-01 19:00:00 34 18 Oeste 44 Sudoeste 0 920.4 -- 13
2020-07-01 18:00:00 35.3 26 Sudoeste 55 Sudoeste 0 920.6 -- 10
2020-07-01 17:00:00 34.9 25 Oeste 47 Oeste 0 920.8 -- 12
2020-07-01 16:00:00 34.5 22 Oeste 47 Sudoeste 0 921.2 -- 13
2020-07-01 15:00:00 34 20 Sudoeste 44 Oeste 0 921.3 -- 13
2020-07-01 14:00:00 33 20 Sudoeste 38 Sudoeste 0 921.5 -- 13
2020-07-01 13:00:00 31.5 17 Sudoeste 42 Sudoeste 0 921.6 -- 17
2020-07-01 12:00:00 29.8 19 Sudoeste 37 Sudoeste 0 922 -- 23
2020-07-01 11:00:00 28.3 15 Sudoeste 29 Sudoeste 0 921.9 -- 24
2020-07-01 10:00:00 25.5 11 Sur 22 Sur 0 922 -- 29
2020-07-01 09:00:00 23.4 8 Sur 20 Sur 0 921.5 -- 34
2020-07-01 08:00:00 22.4 9 Sur 23 Oeste 0 921.2 -- 35
2020-07-01 07:00:00 23 11 Oeste 31 Oeste 0 920.6 -- 34
2020-07-01 06:00:00 23.5 15 Oeste 31 Oeste 0 920.2 -- 35
2020-07-01 05:00:00 24.2 11 Oeste 27 Oeste 0 920 -- 33
2020-07-01 04:00:00 24.6 7 Oeste 20 Oeste 0 920 -- 30
2020-07-01 03:00:00 24.1 7 Sudeste 28 Sudeste 0 919.9 -- 41
2020-07-01 02:00:00 26.2 9 Sudeste 15 Oeste 0 919.9 -- 28
2020-07-01 01:00:00 27.9 8 Oeste 17 Oeste 0 919.7 -- 26
2020-07-01 00:00:00 28.9 8 Oeste 27 Oeste 0 919.6 -- 23
2020-06-30 23:00:00 29.4 10 Oeste 22 Oeste 0 919.3 -- 17
2020-06-30 22:00:00 31.1 13 Sudoeste 28 Oeste 0 918.7 -- 14
2020-06-30 21:00:00 33.7 18 Sudoeste 46 Sudoeste 0 918.2 -- 12
2020-06-30 20:00:00 35.3 24 Oeste 49 Sudoeste 0 917.8 -- 10
2020-06-30 19:00:00 36.9 25 Sudoeste 44 Sudoeste 0 917.9 -- 11
2020-06-30 18:00:00 37.5 24 Sudoeste 44 Sudoeste 0 918.6 -- 11
2020-06-30 17:00:00 37 16 Sudeste 39 Sudoeste 0 919.2 -- 13
2020-06-30 16:00:00 37.1 14 Sur 37 Sudoeste 0 919.8 -- 13
2020-06-30 15:00:00 35.6 17 Sudoeste 38 Sudoeste 0 920.5 -- 14
2020-06-30 14:00:00 34.9 10 Sur 30 Sudeste 0 920.9 -- 15
2020-06-30 13:00:00 33.5 10 Sur 24 Sudeste 0 921.2 -- 18
2020-06-30 12:00:00 31.3 10 Sudeste 25 Sudeste 0 921.4 -- 23
2020-06-30 11:00:00 28.6 14 Sudeste 24 Sudeste 0 921.6 -- 28
2020-06-30 10:00:00 25.5 14 Sudeste 29 Sudeste 0 921.8 -- 35
2020-06-30 09:00:00 23.1 16 Sudeste 28 Sudeste 0 921.8 -- 41
2020-06-30 08:00:00 21.5 13 Sudeste 30 Sudeste 0 921.7 -- 47
2020-06-30 07:00:00 21.5 14 Sudeste 31 Sudeste 0 921.6 -- 47
2020-06-30 06:00:00 22.1 16 Sudeste 32 Este 0 921 -- 46
2020-06-30 05:00:00 23 14 Sudeste 31 Sudeste 0 921 -- 45
2020-06-30 04:00:00 24 15 Sudeste 32 Este 0 921 -- 44
2020-06-30 03:00:00 24.9 16 Sudeste 33 Sudeste 0 921.7 -- 39
2020-06-30 02:00:00 26.2 13 Sudeste 24 Sudeste 0 922 -- 34
2020-06-30 01:00:00 27.9 11 Sudeste 23 Sudeste 0 922.2 -- 25
2020-06-30 00:00:00 29 3 Norte 6 Nordeste 0 921.9 -- 20
2020-06-29 23:00:00 30 2 Norte 7 Norte 0 921.7 -- 20
2020-06-29 22:00:00 31.6 3 Norte 14 Noroeste 0 921.1 -- 19
2020-06-29 21:00:00 33.6 6 Noroeste 23 Noroeste 0 921 -- 16
2020-06-29 20:00:00 34.4 5 Oeste 23 Sudoeste 0 921.1 -- 15
2020-06-29 19:00:00 36 13 Oeste 28 Oeste 0 921.5 -- 14
2020-06-29 18:00:00 36.5 13 Oeste 32 Oeste 0 922 -- 14
2020-06-29 17:00:00 36.3 11 Sudoeste 33 Sudoeste 0 922.6 -- 14
2020-06-29 16:00:00 35.3 12 Oeste 36 Sudoeste 0 923.1 -- 15
2020-06-29 15:00:00 34.4 13 Sudoeste 37 Sudoeste 0 923.8 -- 16
2020-06-29 14:00:00 33.1 17 Sudoeste 32 Oeste 0 924.2 -- 19
2020-06-29 13:00:00 31.4 8 Sudoeste 27 Sudoeste 0 924.7 -- 23
2020-06-29 12:00:00 29.4 8 Sudoeste 19 Sudoeste 0 925 -- 29
2020-06-29 11:00:00 27 8 Sur 20 Sudoeste 0 925 -- 36
2020-06-29 10:00:00 24.7 10 Sudoeste 19 Sur 0 925.1 -- 41
2020-06-29 09:00:00 22.7 9 Sur 21 Sudeste 0 924.8 -- 52
2020-06-29 08:00:00 20.8 14 Sudeste 22 Sudeste 0 924.4 -- 59
2020-06-29 07:00:00 20.2 13 Sudeste 21 Sudeste 0 924.1 -- 61
2020-06-29 06:00:00 21 12 Sudeste 23 Sudeste 0 923.7 -- 58
2020-06-29 05:00:00 21.8 9 Sudeste 17 Sudeste 0 923.7 -- 54
2020-06-29 04:00:00 23.3 8 Sudeste 15 Sudeste 0 923.9 -- 38
2020-06-29 03:00:00 25 0 Calma 10 Oeste 0 924 -- 29
2020-06-29 02:00:00 25.8 5 Noroeste 10 Noroeste 0 924.3 -- 26
2020-06-29 01:00:00 26.6 5 Oeste 10 Oeste 0 924.4 -- 23
2020-06-29 00:00:00 27.4 4 Noroeste 7 Noroeste 0 924.3 -- 22
2020-06-28 23:00:00 28.1 3 Noroeste 12 Noroeste 0 924 -- 22
2020-06-28 22:00:00 29.9 6 Noroeste 16 Noroeste 0 923.6 -- 21
2020-06-28 21:00:00 31.5 5 Noroeste 23 Noroeste 0 923.5 -- 19
2020-06-28 20:00:00 32.5 9 Noroeste 19 Noroeste 0 923.5 -- 17
2020-06-28 19:00:00 34 6 Sur 27 Noroeste 0 923.5 -- 16
2020-06-28 18:00:00 34.8 11 Oeste 30 Oeste 0 924 -- 14
2020-06-28 17:00:00 34.2 14 Sudoeste 26 Sudoeste 0 924.3 -- 15
2020-06-28 16:00:00 33.4 8 Noroeste 32 Sudoeste 0 924.6 -1.2 18
2020-06-28 15:00:00 32.3 14 Oeste 26 Oeste 0 925 -- 19
2020-06-28 14:00:00 30.9 7 Sudoeste 22 Oeste 0 925.4 -- 22
2020-06-28 13:00:00 29.6 12 Sudoeste 26 Oeste 0 925.8 -- 24
2020-06-28 12:00:00 28.1 7 Sudoeste 15 Sudoeste 0 926 -- 29
2020-06-28 11:00:00 26 5 Sur 13 Sur 0 926.1 -- 34
2020-06-28 10:00:00 23.5 5 Sudeste 13 Sudeste 0 925.8 -- 41
2020-06-28 09:00:00 21.5 8 Sudeste 14 Este 0 925.5 -- 47
2020-06-28 08:00:00 20.4 8 Este 13 Este 0 925.2 -- 47
2020-06-28 07:00:00 20.5 8 Este 12 Sudeste 0 924.9 -- 45
2020-06-28 06:00:00 20.5 3 Sudeste 10 Este 0 924.7 -- 45
2020-06-28 05:00:00 21.4 2 Nordeste 9 Noroeste 0 924.4 -- 43
2020-06-28 04:00:00 21.9 5 Norte 12 Oeste 0 924.3 -- 42
2020-06-28 03:00:00 22.7 6 Oeste 16 Oeste 0 924.3 -- 39
2020-06-28 02:00:00 23.7 7 Oeste 23 Oeste 0 924.4 -- 37
2020-06-28 01:00:00 24.7 12 Oeste 26 Oeste 0 924.3 -- 33
2020-06-28 00:00:00 25.7 10 Oeste 23 Oeste 0 924.2 -- 31
2020-06-27 23:00:00 26.5 8 Oeste 17 Oeste 0 923.9 -- 27
2020-06-27 22:00:00 27.4 6 Noroeste 23 Oeste 0 923.4 -- 24
2020-06-27 21:00:00 29.3 7 Noroeste 21 Noroeste 0 923.2 -- 21
2020-06-27 20:00:00 30.2 12 Oeste 31 Sudoeste 0 923.1 -- 19
2020-06-27 19:00:00 31.4 10 Oeste 31 Oeste 0 923.1 -- 18
2020-06-27 18:00:00 32.3 12 Oeste 32 Sudoeste 0 923.3 -- 17
2020-06-27 17:00:00 32.2 13 Oeste 35 Sudoeste 0 923.4 -- 18
2020-06-27 16:00:00 31.5 10 Oeste 33 Sudoeste 0 923.8 -- 18
2020-06-27 15:00:00 30.1 9 Oeste 29 Oeste 0 924 -- 21
2020-06-27 14:00:00 28.4 10 Oeste 31 Oeste 0 924.2 -- 25
2020-06-27 13:00:00 27.4 12 Sudoeste 28 Sudoeste 0 924.5 -- 27
2020-06-27 12:00:00 25.5 10 Sudoeste 21 Oeste 0 924.7 -- 30
2020-06-27 11:00:00 23.6 6 Sudoeste 14 Oeste 0 924.6 -- 35
2020-06-27 10:00:00 21.2 3 Oeste 13 Noroeste 0 924.5 -- 41
2020-06-27 09:00:00 19.4 4 Sudoeste 8 Sudoeste 0 924.2 -- 40
2020-06-27 08:00:00 17.8 2 Sur 6 Sur 0 924.1 -- 39
2020-06-27 07:00:00 16.4 3 Sudeste 13 Sudoeste 0 923.7 -- 35
2020-06-27 06:00:00 16.7 8 Sur 15 Sur 0 923.4 -- 35
2020-06-27 05:00:00 17.6 5 Sur 15 Sur 0 923.3 -- 34
2020-06-27 04:00:00 19.9 3 Nordeste 19 Oeste 0 923 -- 29
2020-06-27 03:00:00 20.7 9 Oeste 26 Oeste 0 922.7 -- 28
2020-06-27 02:00:00 21.3 10 Oeste 26 Oeste 0 922.7 -- 25
2020-06-27 01:00:00 21.9 11 Oeste 24 Oeste 0 922.9 -- 23
2020-06-27 00:00:00 23.2 12 Oeste 26 Oeste 0 922.7 -- 23
2020-06-26 23:00:00 24.7 9 Oeste 26 Oeste 0 922.1 -- 23
2020-06-26 22:00:00 26 10 Oeste 29 Oeste 0 921.1 -- 21
2020-06-26 21:00:00 27.3 12 Oeste 35 Sudoeste 0 920.8 -- 19
2020-06-26 20:00:00 29.5 18 Oeste 36 Sudoeste 0 920.4 -- 17
2020-06-26 19:00:00 31.5 17 Oeste 38 Sudoeste 0 920.2 -- 13
2020-06-26 18:00:00 31.8 21 Sudoeste 41 Sudoeste 0 920.4 -- 14
2020-06-26 17:00:00 32.7 18 Sudoeste 37 Sudoeste 0 920.7 -- 17
2020-06-26 16:00:00 31.5 12 Sur 39 Sudoeste 0 921.1 -- 21
2020-06-26 15:00:00 30.7 18 Sudoeste 36 Sudoeste 0 921.5 -- 23
2020-06-26 14:00:00 30.1 15 Sur 34 Sudoeste 0 922 -- 25
2020-06-26 13:00:00 29 15 Sudoeste 27 Sudeste 0 922.3 -- 27
2020-06-26 12:00:00 27.6 8 Sudoeste 22 Sudoeste 0 922.5 -- 30
2020-06-26 11:00:00 25.9 9 Sur 20 Sudeste 0 922.7 -- 33
2020-06-26 10:00:00 23.7 10 Sudeste 21 Sudeste 0 922.7 -- 38
2020-06-26 09:00:00 21 12 Sudeste 21 Sudeste 0 922.6 -- 46
2020-06-26 08:00:00 19.2 13 Sudeste 25 Sudeste 0 922.5 -- 51
2020-06-26 07:00:00 19.2 13 Sudeste 24 Sudeste 0 922.2 -- 50
2020-06-26 06:00:00 19.5 12 Sudeste 30 Sudeste 0 922.1 -- 48
2020-06-26 05:00:00 19.6 12 Sudeste 32 Sudeste 0 922 -- 48
2020-06-26 04:00:00 20.3 18 Sudeste 37 Sudeste 0 921.9 -- 45
2020-06-26 03:00:00 21.3 16 Sudeste 32 Sudeste 0 922 -- 40
2020-06-26 02:00:00 22.5 16 Sudeste 37 Sudeste 0 922.4 -- 38
2020-06-26 01:00:00 24.9 15 Sudeste 33 Sudeste 0 922.2 -- 32
2020-06-26 00:00:00 26.9 15 Sudeste 30 Sudeste 0 921.9 -- 21
2020-06-25 23:00:00 28.5 5 Sudoeste 21 Sudeste 0 921.7 -- 20
2020-06-25 22:00:00 30.4 15 Sur 31 Sur 0 920.7 -- 18
2020-06-25 21:00:00 32 10 Oeste 32 Sudoeste 0 920 -- 20
2020-06-25 20:00:00 32.5 14 Sudoeste 41 Sudoeste 0 919.9 -- 15
2020-06-25 19:00:00 33.6 18 Sur 41 Sudeste 0 919.9 -- 14
2020-06-25 18:00:00 35.3 15 Sur 43 Sur 0 920.5 -- 13
2020-06-25 17:00:00 35.5 13 Sur 32 Sudeste 0 921.1 -- 12
2020-06-25 16:00:00 34.9 16 Sur 36 Sur 0 921.5 -- 14
2020-06-25 15:00:00 33.8 14 Sur 33 Sur 0 922.3 -- 15
2020-06-25 14:00:00 32.3 15 Sur 37 Sudoeste 0 922.8 -- 18
2020-06-25 13:00:00 31 15 Sur 34 Sudoeste 0 923.1 -- 21
2020-06-25 12:00:00 29.2 13 Sur 32 Sur 0 923.4 -- 26
2020-06-25 11:00:00 27.3 13 Sur 30 Sudoeste 0 923.3 -- 28
2020-06-25 10:00:00 23.8 17 Sudeste 33 Sur 0 923.3 -- 35
2020-06-25 09:00:00 21.4 18 Sudeste 33 Sudeste 0 922.9 -- 42
2020-06-25 08:00:00 19.9 19 Sudeste 40 Sudeste 0 922.8 -- 49
2020-06-25 07:00:00 19.3 19 Sudeste 43 Sudeste 0 922.7 -- 55
2020-06-25 06:00:00 19.7 23 Sudeste 50 Sudeste 0 922.6 -- 56
2020-06-25 05:00:00 20.5 24 Sudeste 47 Sudeste 0 922.8 -- 54
2020-06-25 04:00:00 21.4 25 Sudeste 44 Sudeste 0 923 -- 51
2020-06-25 03:00:00 21.8 20 Sudeste 36 Sudeste 0 923.5 -- 54
2020-06-25 02:00:00 22.9 21 Sudeste 37 Sudeste 0 923.6 -- 50
2020-06-25 01:00:00 24.3 17 Sudeste 34 Sudeste 0 924 -- 41
2020-06-25 00:00:00 25.7 12 Sudeste 28 Sudeste 0 924.2 -- 33
2020-06-24 23:00:00 26.6 14 Sudeste 24 Este 0 923.7 -- 28
2020-06-24 22:00:00 28 11 Sudeste 26 Sudeste 0 923.2 -- 25
2020-06-24 21:00:00 30.3 15 Sudeste 31 Sur 0 923.1 -- 21
2020-06-24 20:00:00 32.3 8 Sur 16 Sudoeste 0 922.9 -- 14
2020-06-24 19:00:00 33.5 5 Sudoeste 17 Sudeste 0 923 -- 13
2020-06-24 18:00:00 33.6 6 Este 22 Sudeste 0 923.5 -- 14
2020-06-24 17:00:00 31.9 9 Este 31 Nordeste 0 923.7 -- 18
2020-06-24 16:00:00 30.6 16 Este 32 Este 0 923.6 -- 22
2020-06-24 15:00:00 29.7 14 Este 27 Nordeste 0 925.6 -- 27
2020-06-24 14:00:00 27.8 10 Este 22 Nordeste 0 926 -- 32
2020-06-24 13:00:00 27.5 13 Nordeste 23 Norte 0 924.6 -- 28
2020-06-24 12:00:00 26.2 8 Sudoeste 22 Sudoeste 0 925.4 -- 32
2020-06-24 11:00:00 26.7 7 Sur 20 Oeste 0 924.8 -- 33
2020-06-24 10:00:00 24.4 4 Oeste 12 Sur 0 924.3 -- 41
2020-06-24 09:00:00 21.8 6 Sudeste 18 Sudeste 0 923.5 -- 48
2020-06-24 08:00:00 20.5 13 Sudeste 26 Sudeste 0 923.1 -- 51
2020-06-24 07:00:00 20.1 13 Sudeste 36 Sudeste 0 923.1 -- 55
2020-06-24 06:00:00 20.7 18 Sudeste 45 Sudeste 0 923.4 -- 57
2020-06-24 05:00:00 21.7 24 Sudeste 48 Sudeste 0.2 923.2 -- 50
2020-06-24 04:00:00 21.9 14 Este 38 Sudeste 0 924 -- 60
2020-06-24 03:00:00 22.1 20 Sur 45 Sudeste 0 924.3 -- 54
2020-06-24 02:00:00 23.3 24 Sudeste 44 Sudeste 0 923.6 -- 50
2020-06-24 01:00:00 24.7 15 Sudeste 28 Sudeste 0 923.5 -- 37
2020-06-24 00:00:00 26.3 13 Sudeste 26 Sur 0 923.4 -- 29
2020-06-23 23:00:00 27.9 13 Sudeste 27 Sudeste 0 923.3 -- 25
2020-06-23 22:00:00 30.2 8 Sur 17 Sur 0 922.4 -- 18
2020-06-23 21:00:00 32.8 7 Sur 19 Sudoeste 0 921.9 -- 14
2020-06-23 20:00:00 34.4 4 Sudeste 18 Sudoeste 0 921.8 -- 12
2020-06-23 19:00:00 35.9 10 Sur 22 Sudeste 0 922 -- 11
2020-06-23 18:00:00 36.8 11 Sudoeste 24 Sudoeste 0 922.4 -- 10
2020-06-23 17:00:00 37.1 9 Sur 30 Sudoeste 0 922.8 -- 11
2020-06-23 16:00:00 36 14 Sur 27 Sudoeste 0 923.3 -- 13
2020-06-23 15:00:00 35 9 Sudeste 26 Este 0 923.9 -- 15
2020-06-23 14:00:00 33.3 10 Sudeste 26 Este 0 924.4 -- 16
2020-06-23 13:00:00 31.1 12 Sudeste 31 Sur 0 924.9 -- 20
2020-06-23 12:00:00 28.8 19 Sudeste 36 Sudeste 0 925.1 -- 25
2020-06-23 11:00:00 26.2 19 Sudeste 36 Sudeste 0 925.4 -- 31
2020-06-23 10:00:00 23.4 21 Sudeste 41 Sudeste 0 925.6 -- 37
2020-06-23 09:00:00 21.5 21 Sudeste 43 Sudeste 0 925.4 -- 42
2020-06-23 08:00:00 20.4 17 Sudeste 37 Sudeste 0 925.2 -- 48
2020-06-23 07:00:00 20.1 18 Sudeste 35 Sudeste 0 925.1 -- 50
2020-06-23 06:00:00 20.9 19 Este 35 Este 0 924.7 -- 48
2020-06-23 05:00:00 21.4 15 Este 43 Sudeste 0 924.9 -- 48
2020-06-23 04:00:00 21.8 21 Sudeste 40 Sudeste 0 925.1 -- 48
2020-06-23 03:00:00 22.7 21 Sudeste 40 Sudeste 0 925.4 -- 46
2020-06-23 02:00:00 23.6 21 Sudeste 37 Sudeste 0 925.6 -- 38
2020-06-23 01:00:00 24.8 15 Sudeste 33 Sudeste 0 925.6 -- 34
2020-06-23 00:00:00 26.5 12 Sudeste 24 Sudeste 0 925.6 -- 29
2020-06-22 23:00:00 29.7 5 Este 13 Nordeste 0 925.2 -- 18
2020-06-22 22:00:00 30.1 7 Norte 13 Norte 0 924.6 -- 17
2020-06-22 21:00:00 32.7 4 Noroeste 15 Noroeste 0 924.5 -- 14
2020-06-22 20:00:00 33.3 3 Sudoeste 19 Noroeste 0 924.4 -- 14
2020-06-22 19:00:00 34.6 8 Sudoeste 22 Sudoeste 0 924.7 -- 13
2020-06-22 18:00:00 35.5 8 Noroeste 26 Noroeste 0 925.2 -- 12
2020-06-22 17:00:00 35 5 Norte 22 Norte 0 925.9 -- 12
2020-06-22 16:00:00 34.9 7 Este 23 Sudoeste 0 926.8 -- 13
2020-06-22 15:00:00 33.2 3 Noroeste 20 Sudeste 0 927.6 -- 15
2020-06-22 14:00:00 32.5 6 Sudeste 27 Sudeste 0 928.4 -- 16
2020-06-22 13:00:00 30.5 6 Sur 24 Este 0 928.7 -- 22
2020-06-22 12:00:00 29.1 8 Sudeste 24 Este 0 929.1 -- 25
2020-06-22 11:00:00 26.8 8 Este 23 Sudeste 0 929.2 -- 29
2020-06-22 10:00:00 23.8 8 Este 18 Nordeste 0 929.5 -- 36
2020-06-22 09:00:00 21.7 5 Norte 14 Norte 0 929.6 -- 40
2020-06-22 08:00:00 20 5 Norte 14 Nordeste 0 929.2 -- 46
2020-06-22 07:00:00 18.9 6 Nordeste 15 Nordeste 0 929 -- 48
2020-06-22 06:00:00 20.5 8 Nordeste 18 Nordeste 0 929 -- 43
2020-06-22 05:00:00 21 8 Nordeste 18 Nordeste 0 929 -- 42
2020-06-22 04:00:00 22 7 Nordeste 18 Este 0 929 -- 38
2020-06-22 03:00:00 23.3 9 Nordeste 22 Nordeste 0 929.1 -- 32
2020-06-22 02:00:00 22.6 5 Norte 11 Norte 0 929 -- 29
2020-06-22 01:00:00 25 5 Norte 25 Norte 0 929 -- 24
2020-06-22 00:00:00 26.2 3 Noroeste 5 Noroeste 0 928.7 -- 17
2020-06-21 23:00:00 27.2 0 Calma 6 Norte 0 928.5 -- 18
2020-06-21 22:00:00 28.8 4 Norte 11 Noroeste 0 928.2 -- 15
2020-06-21 21:00:00 30.8 4 Noroeste 18 Noroeste 0 927.9 -- 13
2020-06-21 20:00:00 31.8 6 Oeste 28 Noroeste 0 927.8 -- 12
2020-06-21 19:00:00 32.9 14 Sudoeste 26 Oeste 0 927.8 -- 10
2020-06-21 18:00:00 33.7 12 Noroeste 31 Noroeste 0 928.3 -- 9
2020-06-21 17:00:00 34.4 9 Oeste 30 Noroeste 0 928.5 -- 11
2020-06-21 16:00:00 32.4 11 Noroeste 26 Norte 0 929 -- 13
2020-06-21 15:00:00 31.8 11 Sudoeste 25 Noroeste 0 929.5 -- 13
2020-06-21 14:00:00 30.6 12 Oeste 27 Noroeste 0 930 -- 14
2020-06-21 13:00:00 29.5 13 Oeste 23 Oeste 0 930.1 -- 15
2020-06-21 12:00:00 28.3 7 Sudoeste 15 Oeste 0 930 -- 20
2020-06-21 11:00:00 25.7 5 Noroeste 14 Noroeste 0 930 -- 26
2020-06-21 10:00:00 23.1 4 Noroeste 12 Norte 0 930 -- 28
2020-06-21 09:00:00 20.9 3 Noroeste 8 Noroeste 0 929.7 -- 31
2020-06-21 08:00:00 18.8 6 Norte 8 Norte 0 929.3 -- 38
2020-06-21 07:00:00 18.1 2 Norte 7 Noroeste 0 928.8 -- 38
2020-06-21 06:00:00 18.2 3 Sudoeste 5 Sudoeste 0 928.4 -- 40
2020-06-21 05:00:00 19.5 3 Norte 14 Noroeste 0 928.2 -- 36
2020-06-21 04:00:00 20.2 6 Noroeste 18 Noroeste 0 928.2 -- 33
2020-06-21 03:00:00 20.6 5 Sur 13 Sudoeste 0 928.5 -- 28
2020-06-21 02:00:00 21.5 9 Sudoeste 15 Sudoeste 0 928.7 -- 26
2020-06-21 01:00:00 22.6 7 Sur 18 Sur 0 928.8 -- 24
2020-06-21 00:00:00 24.9 8 Oeste 20 Oeste 0 928.5 -- 18
2020-06-20 23:00:00 25.7 8 Oeste 18 Oeste 0 928.2 -- 17
2020-06-20 22:00:00 26.7 6 Oeste 22 Noroeste 0 927.6 -- 17
2020-06-20 21:00:00 29 9 Noroeste 29 Noroeste 0 927.3 -- 14
2020-06-20 20:00:00 30.5 8 Noroeste 31 Noroeste 0 927 -- 14
2020-06-20 19:00:00 31.6 12 Oeste 31 Noroeste 0 926.9 -- 12
2020-06-20 18:00:00 32.4 17 Oeste 33 Sudoeste 0 927.1 -- 12
2020-06-20 17:00:00 32.8 13 Oeste 41 Sudoeste 0 927.4 -- 12
2020-06-20 16:00:00 31.3 11 Oeste 39 Sudoeste 0 927.9 -- 13
2020-06-20 15:00:00 30.5 13 Sudoeste 36 Sudoeste 0 928.3 -- 13
2020-06-20 14:00:00 29.3 12 Oeste 33 Oeste 0 928.6 -- 14
2020-06-20 13:00:00 27.8 8 Oeste 28 Oeste 0 928.8 -- 18
2020-06-20 12:00:00 26.3 7 Noroeste 25 Sudoeste 0 928.8 -- 20
2020-06-20 11:00:00 24.1 8 Sudoeste 17 Sudoeste 0 928.7 -- 25
2020-06-20 10:00:00 20.6 5 Sur 14 Sur 0 928.5 -- 34
2020-06-20 09:00:00 18 7 Sur 15 Sudeste 0 928.1 -- 42
2020-06-20 08:00:00 15.9 8 Sudeste 18 Sudeste 0 927.6 -- 44
2020-06-20 07:00:00 15.4 10 Sudeste 16 Sudeste 0 927.4 -- 43
2020-06-20 06:00:00 16.3 10 Sudeste 17 Sudeste 0 927.2 -- 39
2020-06-20 05:00:00 18.1 3 Sudoeste 18 Noroeste 0 926.8 -- 32
2020-06-20 04:00:00 18.4 8 Sudeste 20 Oeste 0 926.7 -- 33
2020-06-20 03:00:00 19 8 Sudoeste 17 Oeste 0 926.8 -- 33
2020-06-20 02:00:00 20.3 10 Sudoeste 24 Sudoeste 0 926.8 -- 32
2020-06-20 01:00:00 22 10 Oeste 23 Oeste 0 926.9 -- 26
2020-06-20 00:00:00 21.4 11 Oeste 18 Oeste 0 926.6 -- 26
2020-06-19 23:00:00 22.5 9 Oeste 16 Oeste 0 926 -- 22
2020-06-19 22:00:00 24.5 8 Oeste 17 Oeste 0 925.2 -- 18
2020-06-19 21:00:00 27 14 Sudoeste 28 Oeste 0 924.7 -- 15
2020-06-19 20:00:00 28.3 18 Oeste 37 Oeste 0 924.3 -- 15
2020-06-19 19:00:00 29.4 13 Oeste 34 Oeste 0 924 -- 17
2020-06-19 18:00:00 29.5 9 Sudoeste 36 Sudoeste 0 923.9 -- 17
2020-06-19 17:00:00 30 5 Sudoeste 32 Sudoeste 0 924.1 -- 18
2020-06-19 16:00:00 29.5 21 Sudoeste 40 Oeste 0 924.6 -- 18
2020-06-19 15:00:00 28.1 12 Oeste 34 Oeste 0 924.8 -- 20
2020-06-19 14:00:00 26.6 10 Oeste 33 Oeste 0 924.9 -- 25
2020-06-19 13:00:00 26.1 7 Sudoeste 27 Sur 0 925 -- 31
2020-06-19 12:00:00 24.2 10 Sudoeste 23 Sudoeste 0 924.9 -- 38
2020-06-19 11:00:00 22.5 9 Sur 28 Sudeste 0 924.7 -- 49
2020-06-19 10:00:00 20.2 12 Sudeste 27 Sudeste 0 924.6 -- 63
2020-06-19 09:00:00 18.1 17 Sudeste 32 Sudeste 0 924.2 -- 73
2020-06-19 08:00:00 16.8 12 Sudeste 25 Sudeste 0 923.8 -- 81
2020-06-19 07:00:00 16.2 14 Sudeste 30 Sur 0 923.3 -- 84
2020-06-19 06:00:00 16.2 14 Sur 29 Sudeste 0 922.7 -- 84
2020-06-19 05:00:00 16.4 13 Sudeste 28 Sudeste 0 922.4 -- 83
2020-06-19 04:00:00 16.8 14 Sudeste 27 Sudeste 0 922.2 -- 80
2020-06-19 03:00:00 17.9 12 Sudeste 25 Sur 0 922.2 -- 73
2020-06-19 02:00:00 20 6 Sudeste 19 Este 0 922 -- 37
2020-06-19 01:00:00 21.2 6 Oeste 18 Oeste 0 922 -- 29
2020-06-19 00:00:00 21.9 8 Oeste 18 Oeste 0 921.7 -- 27
2020-06-18 23:00:00 22.9 7 Oeste 21 Oeste 0 921.4 -- 28
2020-06-18 22:00:00 23.9 8 Oeste 19 Oeste 0 920.8 -- 26
2020-06-18 21:00:00 25.8 10 Oeste 26 Oeste 0 920.2 -- 22
2020-06-18 20:00:00 26.3 6 Oeste 20 Oeste 0 919.8 -- 21
2020-06-18 19:00:00 27.1 9 Oeste 23 Sudoeste 0 919.5 -- 19
2020-06-18 18:00:00 27.7 8 Noroeste 23 Oeste 0 919.7 -- 19
2020-06-18 17:00:00 29.3 14 Sudoeste 44 Sudoeste 0 920 -- 17
2020-06-18 16:00:00 28.4 15 Sudoeste 35 Sudoeste 0 920.3 -- 18
2020-06-18 15:00:00 27.4 13 Sudoeste 34 Oeste 0 920.6 -- 19
2020-06-18 14:00:00 25.6 9 Sudoeste 29 Sudoeste 0 920.9 -- 22
2020-06-18 13:00:00 23.9 9 Sudoeste 27 Oeste 0 921.1 -- 25
2020-06-18 12:00:00 22.7 10 Sudoeste 23 Sudoeste 0 921.2 -- 29
2020-06-18 11:00:00 20.8 10 Sudoeste 24 Sudoeste 0 921.3 -- 36
2020-06-18 10:00:00 18.6 9 Sudeste 23 Sudeste 0 921.3 -- 50
2020-06-18 09:00:00 16.1 10 Sudeste 20 Sudeste 0 920.9 -- 71
2020-06-18 08:00:00 14.3 9 Sudeste 21 Sudeste 0 920.5 -- 81
2020-06-18 07:00:00 13.8 12 Sudeste 19 Sudeste 0 920.1 -- 79
2020-06-18 06:00:00 14.3 11 Sur 21 Sur 0 920 -- 73
2020-06-18 05:00:00 15.6 12 Sudeste 22 Sudeste 0 920 -- 65
2020-06-18 04:00:00 17.8 10 Sudeste 17 Sudeste 0 920.3 -- 63
2020-06-18 03:00:00 17.8 5 Sudoeste 14 Sudoeste 0 920.4 -- 37
2020-06-18 02:00:00 18.5 9 Sudoeste 14 Sudoeste 0 920.9 -- 34
2020-06-18 01:00:00 19.6 9 Sudoeste 16 Oeste 0 921.1 -- 30
2020-06-18 00:00:00 20.6 8 Oeste 17 Oeste 0 921.2 -- 27
2020-06-17 23:00:00 21 8 Oeste 17 Oeste 0 921.2 -- 25
2020-06-17 22:00:00 21.4 5 Oeste 16 Noroeste 0 920.6 -- 24
2020-06-17 21:00:00 23.1 7 Noroeste 24 Oeste 0 920.4 -- 20
2020-06-17 20:00:00 24.7 11 Noroeste 25 Noroeste 0 920.3 -- 19
2020-06-17 19:00:00 25.3 11 Oeste 36 Oeste 0 920.7 -- 18
2020-06-17 18:00:00 25.9 11 Noroeste 33 Oeste 0 921.2 -- 18
2020-06-17 17:00:00 26.3 13 Oeste 29 Sudoeste 0 921.4 -- 19
2020-06-17 16:00:00 25.5 11 Oeste 31 Noroeste 0 921.7 -- 21
2020-06-17 15:00:00 23.5 8 Oeste 27 Sudoeste 0 922.1 -- 26
2020-06-17 14:00:00 24 10 Sur 33 Oeste 0 922.6 -- 26
2020-06-17 13:00:00 21.4 8 Noroeste 21 Noroeste 0 923 -- 32
2020-06-17 12:00:00 20.4 6 Noroeste 19 Oeste 0 923.1 -- 33
2020-06-17 11:00:00 18.6 6 Noroeste 15 Norte 0 923.2 -- 46
2020-06-17 10:00:00 16.9 3 Oeste 10 Noroeste 0 923.4 -- 51
2020-06-17 09:00:00 15 4 Sudoeste 11 Oeste 0 923.3 -- 57
2020-06-17 08:00:00 13.6 5 Norte 17 Noroeste 0 923.1 -- 61
2020-06-17 07:00:00 13.4 7 Noroeste 19 Noroeste 0 922.9 -- 60
2020-06-17 06:00:00 13.1 6 Oeste 14 Oeste 0 922.9 -- 64
2020-06-17 05:00:00 14.2 7 Oeste 14 Oeste 0 922.8 -- 60
2020-06-17 04:00:00 14.9 6 Noroeste 16 Oeste 0 923.1 -- 59
2020-06-17 03:00:00 16.1 5 Noroeste 22 Oeste 0 923.7 -- 54
2020-06-17 02:00:00 16.2 6 Oeste 16 Oeste 0 924.1 -- 58
2020-06-17 01:00:00 16.2 5 Noroeste 12 Noroeste 0 924.5 -- 60
2020-06-17 00:00:00 17.3 6 Oeste 14 Oeste 0 924.7 -- 55
2020-06-16 23:00:00 16.7 3 Norte 23 Noroeste 0 924.8 -- 63
2020-06-16 22:00:00 18.3 8 Noroeste 24 Noroeste 0 924.7 -- 56
2020-06-16 21:00:00 18.4 9 Norte 48 Noroeste 0 923.8 -- 54
2020-06-16 20:00:00 22.4 6 Oeste 39 Noroeste 0 923.2 -- 37
2020-06-16 19:00:00 24.8 14 Oeste 35 Noroeste 0 923.2 -- 25
2020-06-16 18:00:00 25.6 13 Noroeste 35 Noroeste 0 923.4 -- 23
2020-06-16 17:00:00 25.5 15 Noroeste 41 Noroeste 0 923.8 -- 22
2020-06-16 16:00:00 25.5 19 Noroeste 42 Noroeste 0 924.4 -- 24
2020-06-16 15:00:00 25.3 15 Oeste 36 Oeste 0 924.8 -- 26
2020-06-16 14:00:00 23.4 14 Oeste 42 Sudoeste 0 925.1 -- 30
2020-06-16 13:00:00 22.6 14 Noroeste 36 Oeste 0 925.5 -- 33
2020-06-16 12:00:00 21.3 12 Oeste 31 Oeste 0 925.5 -- 36
2020-06-16 11:00:00 19.9 6 Oeste 22 Sudoeste 0 925.7 -- 45
2020-06-16 10:00:00 17.4 5 Norte 14 Norte 0 926.1 -- 53
2020-06-16 09:00:00 16.4 8 Norte 15 Noroeste 0 926 -- 57
2020-06-16 08:00:00 14.4 3 Oeste 8 Noroeste 0 925.6 -- 64
2020-06-16 07:00:00 14.1 3 Noroeste 9 Noroeste 0 925.4 -- 64
2020-06-16 06:00:00 14.9 4 Noroeste 9 Noroeste 0 925.1 -- 60
2020-06-16 05:00:00 15.5 3 Noroeste 10 Noroeste 0 925.1 -- 55
2020-06-16 04:00:00 16.3 4 Oeste 12 Oeste 0 925.1 -- 51
2020-06-16 03:00:00 17.2 5 Noroeste 16 Sudoeste 0 925.5 -- 47
2020-06-16 02:00:00 18.7 8 Oeste 26 Oeste 0 925.8 -- 40
2020-06-16 01:00:00 19.6 9 Oeste 23 Oeste 0 926.3 -- 35
2020-06-16 00:00:00 19.8 11 Oeste 24 Oeste 0 926.4 -- 31
2020-06-15 23:00:00 21.2 8 Oeste 24 Oeste 0 926.4 -- 27
2020-06-15 22:00:00 22.6 9 Oeste 27 Oeste 0 926.1 -- 21
2020-06-15 21:00:00 24.4 12 Oeste 36 Noroeste 0 925.9 -- 19
2020-06-15 20:00:00 25.7 14 Noroeste 40 Noroeste 0 925.6 -- 20
2020-06-15 19:00:00 27 14 Oeste 36 Oeste 0 925.6 -- 17
2020-06-15 18:00:00 27.9 15 Noroeste 35 Noroeste 0 925.9 -- 16
2020-06-15 17:00:00 28.4 13 Oeste 30 Oeste 0 926.2 -- 15
2020-06-15 16:00:00 27.5 13 Sudoeste 33 Sudoeste 0 926.5 -- 17
2020-06-15 15:00:00 26.1 16 Sudoeste 35 Sudoeste 0 927 -- 19
2020-06-15 14:00:00 24.9 11 Sudoeste 31 Sudoeste 0 927.6 -- 20
2020-06-15 13:00:00 23.7 9 Sudoeste 30 Sudoeste 0 927.8 -- 26
2020-06-15 12:00:00 21.6 6 Sudoeste 32 Oeste 0 928 -- 35
2020-06-15 11:00:00 20 8 Oeste 20 Oeste 0 928 -- 39
2020-06-15 10:00:00 18.4 5 Oeste 14 Sudoeste 0 928.1 -- 42
2020-06-15 09:00:00 16.3 4 Oeste 10 Oeste 0 928 -- 51
2020-06-15 08:00:00 13.6 4 Oeste 11 Sudoeste 0 927.7 -- 57
2020-06-15 07:00:00 12.9 8 Sur 14 Sur 0 927.3 -- 59
2020-06-15 06:00:00 13 5 Sur 14 Sur 0 926.9 -- 57
2020-06-15 05:00:00 14.5 0 Calma 7 Nordeste 0 926.6 -- 53
2020-06-15 04:00:00 15.5 3 Norte 16 Noroeste 0 926.7 -- 50
2020-06-15 03:00:00 16.5 7 Oeste 25 Oeste 0 926.7 -- 46
2020-06-15 02:00:00 16.8 11 Oeste 21 Oeste 0 926.9 -- 45
2020-06-15 01:00:00 18.4 12 Oeste 25 Oeste 0 926.9 -- 38
2020-06-15 00:00:00 19.4 11 Oeste 23 Oeste 0 926.7 -- 33